Time;durP1;ratioP1;P1;durP2;ratioP2;P2;SDS_P1;SDS_P2;PMS_P1;PMS_P2;Temp;Humidity;BMP_temperature;BMP_pressure;BME280_temperature;BME280_humidity;BME280_pressure;Samples;Min_cycle;Max_cycle;Signal;HPM_P1;HPM_P2
2023/09/20 00:00:40;;;;;;;6.45;3.20;;;;;;;;;;6242416;28;20057;-77
2023/09/20 00:03:43;;;;;;;5.65;2.95;;;;;;;;;;6251605;28;20325;-78
2023/09/20 00:06:45;;;;;;;6.72;3.17;;;;;;;;;;6258368;28;20040;-78
2023/09/20 00:09:47;;;;;;;6.70;3.47;;;;;;;;;;6275251;28;20072;-77
2023/09/20 00:12:49;;;;;;;5.68;3.10;;;;;;;;;;6276375;28;20114;-77
2023/09/20 00:15:55;;;;;;;6.03;3.20;;;;;;;;;;6276017;28;20233;-77
2023/09/20 00:18:57;;;;;;;6.88;3.03;;;;;;;;;;6277201;28;20055;-77
2023/09/20 00:21:59;;;;;;;7.90;3.50;;;;;;;;;;6275314;28;20057;-77
2023/09/20 00:25:00;;;;;;;8.20;3.45;;;;;;;;;;6275632;28;20082;-76
2023/09/20 00:28:03;;;;;;;6.38;3.38;;;;;;;;;;6266951;28;20072;-77
2023/09/20 00:31:08;;;;;;;9.10;3.20;;;;;;;;;;6277769;28;20116;-77
2023/09/20 00:34:10;;;;;;;7.25;3.05;;;;;;;;;;6260649;28;20124;-77
2023/09/20 00:37:12;;;;;;;6.47;3.50;;;;;;;;;;6273829;28;20060;-77
2023/09/20 00:40:16;;;;;;;8.27;3.60;;;;;;;;;;6275483;28;20057;-78
2023/09/20 00:43:23;;;;;;;8.40;3.92;;;;;;;;;;6278138;28;20041;-77
2023/09/20 00:46:26;;;;;;;7.10;3.70;;;;;;;;;;6275834;28;20057;-77
2023/09/20 00:49:29;;;;;;;9.88;3.92;;;;;;;;;;6256576;28;20117;-77
2023/09/20 00:52:31;;;;;;;10.10;3.43;;;;;;;;;;6249477;28;20050;-77
2023/09/20 00:55:34;;;;;;;7.18;3.10;;;;;;;;;;6248337;28;20325;-77
2023/09/20 00:58:36;;;;;;;7.82;4.03;;;;;;;;;;6248831;28;20053;-75
2023/09/20 01:01:40;;;;;;;10.98;3.60;;;;;;;;;;6273116;28;20103;-77
2023/09/20 01:04:43;;;;;;;13.05;3.60;;;;;;;;;;6270511;28;20116;-77
2023/09/20 01:07:45;;;;;;;9.00;3.67;;;;;;;;;;6266403;28;20069;-77
2023/09/20 01:10:48;;;;;;;12.02;3.60;;;;;;;;;;6276998;28;20045;-77
2023/09/20 01:13:49;;;;;;;7.93;3.53;;;;;;;;;;6267749;28;20182;-76
2023/09/20 01:16:53;;;;;;;7.47;4.00;;;;;;;;;;6265382;28;20089;-77
2023/09/20 01:19:55;;;;;;;10.38;4.05;;;;;;;;;;6273831;28;20174;-77
2023/09/20 01:22:59;;;;;;;8.75;3.30;;;;;;;;;;6277206;28;20179;-77
2023/09/20 01:26:03;;;;;;;8.85;3.88;;;;;;;;;;6273382;28;20325;-77
2023/09/20 01:29:05;;;;;;;8.82;3.70;;;;;;;;;;6278131;28;20063;-77
2023/09/20 01:32:07;;;;;;;8.90;3.60;;;;;;;;;;6279889;28;20056;-77
2023/09/20 01:35:09;;;;;;;7.57;3.60;;;;;;;;;;6277591;28;20053;-77
2023/09/20 01:38:13;;;;;;;10.13;3.63;;;;;;;;;;6278846;28;20414;-77
2023/09/20 01:41:15;;;;;;;6.60;3.28;;;;;;;;;;6271774;28;20061;-77
2023/09/20 01:44:17;;;;;;;6.65;3.53;;;;;;;;;;6277312;28;20053;-77
2023/09/20 01:47:18;;;;;;;8.60;3.55;;;;;;;;;;6270813;28;20119;-77
2023/09/20 01:50:22;;;;;;;11.23;3.75;;;;;;;;;;6280831;28;20055;-76
2023/09/20 01:53:25;;;;;;;10.02;3.47;;;;;;;;;;6279818;28;20087;-78
2023/09/20 01:56:27;;;;;;;8.45;3.80;;;;;;;;;;6277081;28;20321;-77
2023/09/20 01:59:28;;;;;;;9.35;3.70;;;;;;;;;;6269774;28;20352;-77
2023/09/20 02:02:30;;;;;;;6.35;3.70;;;;;;;;;;6272222;28;20057;-78
2023/09/20 02:05:33;;;;;;;8.25;3.63;;;;;;;;;;6248935;28;20341;-77
2023/09/20 02:08:36;;;;;;;6.95;3.53;;;;;;;;;;6263239;28;20087;-77
2023/09/20 02:11:38;;;;;;;7.93;3.80;;;;;;;;;;6273448;28;20052;-77
2023/09/20 02:14:40;;;;;;;6.55;3.40;;;;;;;;;;6277752;28;20228;-76
2023/09/20 02:17:42;;;;;;;7.35;3.75;;;;;;;;;;6272532;28;20467;-77
2023/09/20 02:20:44;;;;;;;6.20;3.08;;;;;;;;;;6282305;28;20317;-77
2023/09/20 02:23:56;;;;;;;8.63;3.65;;;;;;;;;;6278597;28;20041;-76
2023/09/20 02:26:58;;;;;;;8.70;3.45;;;;;;;;;;6278037;28;20052;-75
2023/09/20 02:30:00;;;;;;;6.68;3.10;;;;;;;;;;6278512;28;20072;-76
2023/09/20 02:33:05;;;;;;;8.40;3.10;;;;;;;;;;6279280;28;20056;-76
2023/09/20 02:36:07;;;;;;;12.55;3.35;;;;;;;;;;6279288;28;20210;-74
2023/09/20 02:39:15;;;;;;;6.75;2.58;;;;;;;;;;6277102;28;20048;-75
2023/09/20 02:42:18;;;;;;;7.70;3.28;;;;;;;;;;6278063;28;20052;-77
2023/09/20 02:45:21;;;;;;;7.75;3.03;;;;;;;;;;6277529;28;20079;-77
2023/09/20 02:48:28;;;;;;;8.27;3.63;;;;;;;;;;6277913;28;20052;-75
2023/09/20 02:51:30;;;;;;;9.05;3.85;;;;;;;;;;6279331;28;20273;-74
2023/09/20 02:54:34;;;;;;;7.07;3.25;;;;;;;;;;6278991;28;20049;-74
2023/09/20 02:57:37;;;;;;;10.25;4.70;;;;;;;;;;6274367;28;20049;-77
2023/09/20 03:00:46;;;;;;;10.52;4.20;;;;;;;;;;6279847;28;20061;-74
2023/09/20 03:03:48;;;;;;;15.60;4.63;;;;;;;;;;6273956;28;20057;-74
2023/09/20 03:07:06;;;;;;;9.50;4.03;;;;;;;;;;6268699;28;20551;-74
2023/09/20 03:10:12;;;;;;;8.85;4.30;;;;;;;;;;6263699;28;20049;-74
2023/09/20 03:13:16;;;;;;;9.93;4.53;;;;;;;;;;6266148;28;20044;-74
2023/09/20 03:16:19;;;;;;;9.02;4.32;;;;;;;;;;6278438;28;20112;-75
2023/09/20 03:19:22;;;;;;;11.88;4.28;;;;;;;;;;6275333;28;20284;-74
2023/09/20 03:22:23;;;;;;;9.48;5.40;;;;;;;;;;6273688;28;20063;-76
2023/09/20 03:25:28;;;;;;;10.00;4.28;;;;;;;;;;6275111;28;20049;-77
2023/09/20 03:28:30;;;;;;;9.60;4.45;;;;;;;;;;6269442;28;20337;-76
2023/09/20 03:31:32;;;;;;;11.43;4.93;;;;;;;;;;6278556;28;20107;-77
2023/09/20 03:34:34;;;;;;;10.13;4.80;;;;;;;;;;6276375;28;20040;-77
2023/09/20 03:37:37;;;;;;;8.85;4.88;;;;;;;;;;6268312;28;20049;-76
2023/09/20 03:40:41;;;;;;;10.88;4.50;;;;;;;;;;6262637;28;20046;-77
2023/09/20 03:43:45;;;;;;;12.93;5.22;;;;;;;;;;6276237;28;20064;-77
2023/09/20 03:46:50;;;;;;;8.50;4.72;;;;;;;;;;6258991;28;20084;-77
2023/09/20 03:49:52;;;;;;;12.25;4.43;;;;;;;;;;6276529;28;20114;-76
2023/09/20 03:52:54;;;;;;;9.15;4.40;;;;;;;;;;6276860;28;20060;-76
2023/09/20 03:55:57;;;;;;;7.85;4.60;;;;;;;;;;6276952;28;20057;-76
2023/09/20 03:59:00;;;;;;;10.02;4.55;;;;;;;;;;6276718;28;20129;-76
2023/09/20 04:02:01;;;;;;;11.18;5.22;;;;;;;;;;6277448;28;20065;-77
2023/09/20 04:05:10;;;;;;;11.55;5.15;;;;;;;;;;6277900;28;20353;-76
2023/09/20 04:08:12;;;;;;;14.75;6.00;;;;;;;;;;6274107;28;20056;-75
2023/09/20 04:11:15;;;;;;;14.98;5.28;;;;;;;;;;6277665;28;20374;-76
2023/09/20 04:14:17;;;;;;;11.73;5.30;;;;;;;;;;6275079;28;20051;-76
2023/09/20 04:17:21;;;;;;;8.40;4.65;;;;;;;;;;6277789;28;20215;-75
2023/09/20 04:20:23;;;;;;;;;;;;;;;;;;6277732;28;20068;-75
2023/09/20 04:23:25;;;;;;;11.45;5.43;;;;;;;;;;6274290;28;19916;-73
2023/09/20 04:26:28;;;;;;;11.63;4.97;;;;;;;;;;6250460;28;20049;-76
2023/09/20 04:29:30;;;;;;;8.70;4.72;;;;;;;;;;6259598;28;20052;-77
2023/09/20 04:32:32;;;;;;;11.75;4.78;;;;;;;;;;6275689;28;20053;-76
2023/09/20 04:35:35;;;;;;;12.57;4.63;;;;;;;;;;6277331;28;20052;-76
2023/09/20 04:38:36;;;;;;;14.27;5.20;;;;;;;;;;6273114;28;20053;-76
2023/09/20 04:41:40;;;;;;;10.77;5.32;;;;;;;;;;6276920;28;20055;-74
2023/09/20 04:44:42;;;;;;;;;;;;;;;;;;6275193;28;20060;-75
2023/09/20 04:47:44;;;;;;;11.15;5.03;;;;;;;;;;6275168;28;20197;-74
2023/09/20 04:50:50;;;;;;;11.95;6.20;;;;;;;;;;6276076;28;20045;-74
2023/09/20 04:53:52;;;;;;;7.88;5.15;;;;;;;;;;6272807;28;20052;-74
2023/09/20 04:56:55;;;;;;;12.02;5.45;;;;;;;;;;6276961;28;20068;-76
2023/09/20 04:59:56;;;;;;;12.73;5.15;;;;;;;;;;6279830;28;20063;-76
2023/09/20 05:02:58;;;;;;;9.50;5.55;;;;;;;;;;6281107;28;20257;-75
2023/09/20 05:06:00;;;;;;;9.05;5.20;;;;;;;;;;6278493;28;20060;-79
2023/09/20 05:09:03;;;;;;;12.00;5.00;;;;;;;;;;6279465;28;20049;-77
2023/09/20 05:12:09;;;;;;;7.85;4.43;;;;;;;;;;6276634;28;20057;-82
2023/09/20 05:15:12;;;;;;;13.75;5.93;;;;;;;;;;6279101;28;20131;-77
2023/09/20 05:18:14;;;;;;;;;;;;;;;;;;6282174;28;20233;-77
2023/09/20 05:21:16;;;;;;;12.23;5.70;;;;;;;;;;6281568;28;20252;-74
2023/09/20 05:24:18;;;;;;;11.55;6.07;;;;;;;;;;6282239;28;20232;-79
2023/09/20 05:27:23;;;;;;;11.23;5.15;;;;;;;;;;6281337;28;20052;-77
2023/09/20 05:30:26;;;;;;;10.75;5.65;;;;;;;;;;6281196;28;20053;-76
2023/09/20 05:33:30;;;;;;;12.40;5.35;;;;;;;;;;6277101;28;20051;-79
2023/09/20 05:36:32;;;;;;;13.20;5.82;;;;;;;;;;6258484;28;20143;-78
2023/09/20 05:39:35;;;;;;;8.82;5.50;;;;;;;;;;6255166;28;20058;-76
2023/09/20 05:42:39;;;;;;;11.90;5.93;;;;;;;;;;6246987;28;20053;-77
2023/09/20 05:45:41;;;;;;;9.98;5.70;;;;;;;;;;6257097;28;20053;-77
2023/09/20 05:48:44;;;;;;;10.65;5.28;;;;;;;;;;6254514;28;20057;-78
2023/09/20 05:51:46;;;;;;;12.18;5.88;;;;;;;;;;6258418;28;20069;-78
2023/09/20 05:54:48;;;;;;;10.70;5.43;;;;;;;;;;6247426;28;20072;-77
2023/09/20 05:57:51;;;;;;;11.20;5.70;;;;;;;;;;6251601;28;20084;-77
2023/09/20 06:00:53;;;;;;;16.42;5.85;;;;;;;;;;6244994;28;20358;-77
2023/09/20 06:03:56;;;;;;;11.32;6.22;;;;;;;;;;6244353;28;20057;-77
2023/09/20 06:06:58;;;;;;;13.13;6.22;;;;;;;;;;6251654;28;20058;-76
2023/09/20 06:10:01;;;;;;;11.77;6.68;;;;;;;;;;6247094;28;20412;-77
2023/09/20 06:13:08;;;;;;;11.57;7.20;;;;;;;;;;6257624;28;20116;-77
2023/09/20 06:16:10;;;;;;;14.02;8.50;;;;;;;;;;6251768;28;20314;-77
2023/09/20 06:19:12;;;;;;;14.38;8.50;;;;;;;;;;6253706;28;20050;-77
2023/09/20 06:22:14;;;;;;;16.45;8.10;;;;;;;;;;6253255;28;20037;-77
2023/09/20 06:25:19;;;;;;;12.75;8.23;;;;;;;;;;6255250;28;20333;-77
2023/09/20 06:28:24;;;;;;;14.60;8.50;;;;;;;;;;6248737;28;20116;-78
2023/09/20 06:31:26;;;;;;;17.13;8.55;;;;;;;;;;6256294;28;20087;-79
2023/09/20 06:34:27;;;;;;;16.45;8.95;;;;;;;;;;6256614;28;20057;-77
2023/09/20 06:37:29;;;;;;;15.75;8.93;;;;;;;;;;6270982;28;20045;-78
2023/09/20 06:40:38;;;;;;;18.77;9.32;;;;;;;;;;6260027;28;20091;-78
2023/09/20 06:43:41;;;;;;;17.23;9.32;;;;;;;;;;6261676;28;20338;-78
2023/09/20 06:46:43;;;;;;;24.77;10.90;;;;;;;;;;6254456;28;20057;-76
2023/09/20 06:49:46;;;;;;;16.60;9.13;;;;;;;;;;6248128;28;20056;-76
2023/09/20 06:52:48;;;;;;;15.32;8.82;;;;;;;;;;6268964;28;20048;-78
2023/09/20 06:55:50;;;;;;;15.57;8.55;;;;;;;;;;6260547;28;20270;-77
2023/09/20 06:58:53;;;;;;;16.65;8.52;;;;;;;;;;6250813;28;20052;-76
2023/09/20 07:01:56;;;;;;;13.60;8.00;;;;;;;;;;6262710;28;20061;-76
2023/09/20 07:04:58;;;;;;;17.40;8.45;;;;;;;;;;6273960;28;20052;-76
2023/09/20 07:08:00;;;;;;;17.73;8.07;;;;;;;;;;6276711;28;20056;-76
2023/09/20 07:11:04;;;;;;;18.20;8.23;;;;;;;;;;6257412;28;20887;-79
2023/09/20 07:14:07;;;;;;;13.63;7.93;;;;;;;;;;6258224;28;20063;-76
2023/09/20 07:17:09;;;;;;;;;;;;;;;;;;6259146;28;20049;-76
2023/09/20 07:20:15;;;;;;;13.82;7.43;;;;;;;;;;6255647;28;19960;-78
2023/09/20 07:23:16;;;;;;;14.35;7.63;;;;;;;;;;6255990;28;20057;-78
2023/09/20 07:26:21;;;;;;;12.23;6.63;;;;;;;;;;6254791;28;20054;-78
2023/09/20 07:29:24;;;;;;;14.32;6.35;;;;;;;;;;6279291;28;20107;-78
2023/09/20 07:32:26;;;;;;;16.02;6.95;;;;;;;;;;6264855;28;21946;-78
2023/09/20 07:35:37;;;;;;;11.48;6.28;;;;;;;;;;6276149;28;20056;-78
2023/09/20 07:38:38;;;;;;;13.02;6.07;;;;;;;;;;6254968;28;20049;-77
2023/09/20 07:41:44;;;;;;;10.32;6.00;;;;;;;;;;6255173;28;20059;-77
2023/09/20 07:44:48;;;;;;;10.52;5.47;;;;;;;;;;6267923;28;20060;-78
2023/09/20 07:47:50;;;;;;;8.68;5.50;;;;;;;;;;6250115;28;20057;-78
2023/09/20 07:50:52;;;;;;;12.23;5.60;;;;;;;;;;6277354;28;20060;-78
2023/09/20 07:53:54;;;;;;;11.25;5.78;;;;;;;;;;6276623;28;20151;-77
2023/09/20 07:56:56;;;;;;;9.20;5.50;;;;;;;;;;6276261;28;20049;-78
2023/09/20 08:00:00;;;;;;;9.70;5.50;;;;;;;;;;6277020;28;20217;-77
2023/09/20 08:03:01;;;;;;;10.93;6.20;;;;;;;;;;6276361;28;20182;-78
2023/09/20 08:06:08;;;;;;;8.85;6.00;;;;;;;;;;6277359;28;20053;-78
2023/09/20 08:09:10;;;;;;;8.85;5.55;;;;;;;;;;6279185;28;20115;-78
2023/09/20 08:12:12;;;;;;;12.68;5.05;;;;;;;;;;6277201;28;20052;-77
2023/09/20 08:15:15;;;;;;;8.30;4.78;;;;;;;;;;6277513;28;20060;-77
2023/09/20 08:21:38;;;;;;;8.45;4.50;;;;;;;;;;6254755;28;20041;-78
2023/09/20 09:01:21;;;;;;;10.52;4.88;;;;;;;;;;6268302;28;20057;-78
2023/09/20 09:04:25;;;;;;;9.32;4.55;;;;;;;;;;6245359;28;20350;-78
2023/09/20 09:07:26;;;;;;;11.57;5.65;;;;;;;;;;6276708;28;20063;-78
2023/09/20 09:10:29;;;;;;;9.73;5.30;;;;;;;;;;6260004;28;20273;-78
2023/09/20 09:13:31;;;;;;;12.20;4.85;;;;;;;;;;6249894;28;20069;-78
2023/09/20 09:16:33;;;;;;;12.20;4.97;;;;;;;;;;6268726;28;20053;-79
2023/09/20 09:19:37;;;;;;;12.85;4.65;;;;;;;;;;6275101;28;20099;-78
2023/09/20 09:22:39;;;;;;;10.30;4.82;;;;;;;;;;6253919;28;20076;-78
2023/09/20 09:25:41;;;;;;;13.85;6.35;;;;;;;;;;6245951;28;20041;-78
2023/09/20 09:28:43;;;;;;;9.63;5.40;;;;;;;;;;6248547;28;20049;-78
2023/09/20 09:31:49;;;;;;;8.43;5.97;;;;;;;;;;6248630;28;20065;-78
2023/09/20 09:34:52;;;;;;;11.52;6.47;;;;;;;;;;6252954;28;20246;-77
2023/09/20 09:37:54;;;;;;;11.23;6.35;;;;;;;;;;6256345;28;20052;-78
2023/09/20 09:40:56;;;;;;;13.60;6.63;;;;;;;;;;6271141;28;20117;-79
2023/09/20 09:43:58;;;;;;;12.82;7.15;;;;;;;;;;6265044;28;20098;-78
2023/09/20 09:47:00;;;;;;;11.40;7.13;;;;;;;;;;6275836;28;20056;-78
2023/09/20 09:50:06;;;;;;;12.48;6.45;;;;;;;;;;6256028;28;20053;-78
2023/09/20 09:53:08;;;;;;;13.95;7.05;;;;;;;;;;6277811;28;20083;-78
2023/09/20 09:56:10;;;;;;;11.43;6.97;;;;;;;;;;6280143;28;20045;-78
2023/09/20 09:59:11;;;;;;;13.07;6.30;;;;;;;;;;6279547;28;20049;-78
2023/09/20 10:02:17;;;;;;;15.30;6.07;;;;;;;;;;6280767;28;20059;-77
2023/09/20 10:05:20;;;;;;;14.02;7.10;;;;;;;;;;6283311;28;20053;-78
2023/09/20 10:08:23;;;;;;;17.83;7.85;;;;;;;;;;6280214;28;20104;-78
2023/09/20 10:11:27;;;;;;;14.82;8.02;;;;;;;;;;6281328;28;20052;-78
2023/09/20 10:14:28;;;;;;;16.15;8.40;;;;;;;;;;6280546;28;20045;-78
2023/09/20 10:17:31;;;;;;;10.57;6.78;;;;;;;;;;6280748;28;20060;-78
2023/09/20 10:21:04;;;;;;;14.35;8.93;;;;;;;;;;6281745;28;20091;-78
2023/09/20 10:24:09;;;;;;;11.48;7.18;;;;;;;;;;6279856;28;20367;-78
2023/09/20 10:27:10;;;;;;;14.95;7.28;;;;;;;;;;6281063;28;20045;-78
2023/09/20 10:30:13;;;;;;;13.20;5.95;;;;;;;;;;6280559;28;20056;-78
2023/09/20 10:33:14;;;;;;;18.77;8.57;;;;;;;;;;6278521;28;20052;-78
2023/09/20 10:36:23;;;;;;;11.05;6.88;;;;;;;;;;6279778;28;20057;-77
2023/09/20 10:39:29;;;;;;;13.23;7.35;;;;;;;;;;6278286;28;20052;-78
2023/09/20 10:42:31;;;;;;;12.50;6.63;;;;;;;;;;6279310;28;20123;-77
2023/09/20 10:45:32;;;;;;;14.30;8.55;;;;;;;;;;6279078;28;20045;-77
2023/09/20 10:48:35;;;;;;;10.65;7.18;;;;;;;;;;6244989;28;20061;-78
2023/09/20 10:51:41;;;;;;;;;;;;;;;;;;6265384;28;20040;-77
2023/09/20 10:54:44;;;;;;;21.15;8.73;;;;;;;;;;6266696;28;19967;-78
2023/09/20 10:57:46;;;;;;;13.57;9.48;;;;;;;;;;6262719;28;20053;-77
2023/09/20 11:00:50;;;;;;;16.63;10.52;;;;;;;;;;6276809;28;20052;-78
2023/09/20 11:03:53;;;;;;;15.98;9.70;;;;;;;;;;6277304;28;20113;-77
2023/09/20 11:06:59;;;;;;;13.27;9.15;;;;;;;;;;6279348;28;20300;-77
2023/09/20 11:10:02;;;;;;;15.30;8.68;;;;;;;;;;6276319;28;20064;-76
2023/09/20 11:13:06;;;;;;;17.13;8.73;;;;;;;;;;6279129;28;20052;-76
2023/09/20 11:16:08;;;;;;;14.23;8.90;;;;;;;;;;6277262;28;20115;-78
2023/09/20 11:19:11;;;;;;;18.63;10.43;;;;;;;;;;6277726;28;20387;-78
2023/09/20 11:22:16;;;;;;;18.35;8.80;;;;;;;;;;6278491;28;20293;-78
2023/09/20 11:25:17;;;;;;;11.80;8.40;;;;;;;;;;6278283;28;20053;-77
2023/09/20 11:28:20;;;;;;;15.70;8.98;;;;;;;;;;6278164;28;20053;-76
2023/09/20 11:31:23;;;;;;;14.82;9.57;;;;;;;;;;6279162;28;20057;-78
2023/09/20 11:34:28;;;;;;;17.65;9.02;;;;;;;;;;6279476;28;20053;-78
2023/09/20 11:37:32;;;;;;;16.02;9.15;;;;;;;;;;6277769;28;20124;-76
2023/09/20 11:40:36;;;;;;;16.13;8.32;;;;;;;;;;6277265;28;20053;-76
2023/09/20 11:43:41;;;;;;;15.52;10.82;;;;;;;;;;6278358;28;20075;-75
2023/09/20 11:46:45;;;;;;;16.80;9.65;;;;;;;;;;6276695;28;20329;-77
2023/09/20 11:49:46;;;;;;;15.55;10.85;;;;;;;;;;6276454;28;20064;-76
2023/09/20 11:52:50;;;;;;;38.08;28.98;;;;;;;;;;6264587;28;20094;-77
2023/09/20 11:55:54;;;;;;;24.35;17.88;;;;;;;;;;6257662;28;20053;-79
2023/09/20 11:58:59;;;;;;;17.27;12.70;;;;;;;;;;6253824;28;20060;-77
2023/09/20 12:02:02;;;;;;;21.30;16.60;;;;;;;;;;6251432;28;20057;-79
2023/09/20 12:05:04;;;;;;;15.27;11.00;;;;;;;;;;6249664;28;20969;-78
2023/09/20 12:08:09;;;;;;;16.60;11.88;;;;;;;;;;6253178;28;20169;-77
2023/09/20 12:11:10;;;;;;;16.30;11.43;;;;;;;;;;6257084;28;20052;-78
2023/09/20 12:14:13;;;;;;;15.40;9.20;;;;;;;;;;6251785;28;20271;-75
2023/09/20 12:17:15;;;;;;;;;;;;;;;;;;6244652;28;20096;-75
2023/09/20 12:20:17;;;;;;;18.05;11.43;;;;;;;;;;6242740;28;19932;-76
2023/09/20 12:23:20;;;;;;;16.23;10.35;;;;;;;;;;6253968;28;20383;-76
2023/09/20 12:26:24;;;;;;;16.20;11.75;;;;;;;;;;6252726;28;20215;-76
2023/09/20 12:29:26;;;;;;;14.32;9.50;;;;;;;;;;6259183;28;20593;-75
2023/09/20 12:32:28;;;;;;;18.98;11.77;;;;;;;;;;6277559;28;20053;-75
2023/09/20 12:35:30;;;;;;;14.75;10.23;;;;;;;;;;6275392;28;20076;-74
2023/09/20 12:38:35;;;;;;;17.23;10.70;;;;;;;;;;6252614;28;20052;-74
2023/09/20 12:41:37;;;;;;;15.63;10.68;;;;;;;;;;6251376;28;20073;-74
2023/09/20 12:44:39;;;;;;;15.73;11.00;;;;;;;;;;6276811;28;20351;-73
2023/09/20 12:47:42;;;;;;;14.95;10.32;;;;;;;;;;6275806;28;20064;-75
2023/09/20 12:50:44;;;;;;;17.10;11.75;;;;;;;;;;6252298;28;20049;-74
2023/09/20 12:53:47;;;;;;;13.40;11.07;;;;;;;;;;6276806;28;20366;-74
2023/09/20 12:56:50;;;;;;;18.48;12.35;;;;;;;;;;6277009;28;20071;-76
2023/09/20 12:59:52;;;;;;;21.05;11.88;;;;;;;;;;6268880;28;20348;-75
2023/09/20 13:02:55;;;;;;;17.40;11.80;;;;;;;;;;6278001;28;20061;-75
2023/09/20 13:05:57;;;;;;;21.15;12.35;;;;;;;;;;6274233;28;20272;-76
2023/09/20 13:09:00;;;;;;;25.30;15.85;;;;;;;;;;6277574;28;20132;-75
2023/09/20 13:12:01;;;;;;;22.58;15.43;;;;;;;;;;6275557;28;20075;-76
2023/09/20 13:15:03;;;;;;;15.18;12.70;;;;;;;;;;6277155;28;20106;-72
2023/09/20 13:18:06;;;;;;;19.30;13.53;;;;;;;;;;6277586;28;20053;-73
2023/09/20 13:21:08;;;;;;;;;;;;;;;;;;6283030;28;20333;-74
2023/09/20 13:24:11;;;;;;;20.70;13.23;;;;;;;;;;6273331;28;19924;-74
2023/09/20 13:27:14;;;;;;;16.58;10.60;;;;;;;;;;6276888;28;20095;-72
2023/09/20 13:30:17;;;;;;;;;;;;;;;;;;6273088;28;20324;-74
2023/09/20 13:33:19;;;;;;;19.48;12.05;;;;;;;;;;6283167;28;19950;-72
2023/09/20 13:36:21;;;;;;;18.77;13.27;;;;;;;;;;6280072;28;20103;-74
2023/09/20 13:39:24;;;;;;;18.83;13.10;;;;;;;;;;6281354;28;20075;-75
2023/09/20 13:42:26;;;;;;;19.67;12.52;;;;;;;;;;6281912;28;20520;-74
2023/09/20 13:45:28;;;;;;;20.58;13.52;;;;;;;;;;6280912;28;20119;-73
2023/09/20 13:48:30;;;;;;;18.88;10.98;;;;;;;;;;6281864;28;20052;-74
2023/09/20 13:51:32;;;;;;;14.65;11.32;;;;;;;;;;6282504;28;20052;-73
2023/09/20 13:54:35;;;;;;;19.75;11.73;;;;;;;;;;6281650;28;20053;-74
2023/09/20 13:57:37;;;;;;;22.38;13.63;;;;;;;;;;6254983;28;20049;-74
2023/09/20 14:00:39;;;;;;;68.93;48.67;;;;;;;;;;6255956;28;20361;-74
2023/09/20 14:03:40;;;;;;;81.78;52.67;;;;;;;;;;6248110;28;20144;-74
2023/09/20 14:06:45;;;;;;;26.70;17.20;;;;;;;;;;6254571;28;20057;-74
2023/09/20 14:09:49;;;;;;;35.28;22.42;;;;;;;;;;6256750;28;20055;-73
2023/09/20 14:12:52;;;;;;;109.93;70.07;;;;;;;;;;6255800;28;20060;-75
2023/09/20 14:15:54;;;;;;;40.47;25.17;;;;;;;;;;6256740;28;20108;-72
2023/09/20 14:18:56;;;;;;;49.78;31.58;;;;;;;;;;6253077;28;20061;-73
2023/09/20 14:21:59;;;;;;;42.50;27.60;;;;;;;;;;6242447;28;20128;-73
2023/09/20 14:25:02;;;;;;;;;;;;;;;;;;6258457;28;20111;-73
2023/09/20 14:28:04;;;;;;;21.02;10.93;;;;;;;;;;6252346;28;19952;-74
2023/09/20 14:31:14;;;;;;;17.60;11.53;;;;;;;;;;6256291;28;20064;-74
2023/09/20 14:34:15;;;;;;;20.05;10.77;;;;;;;;;;6254747;28;20045;-76
2023/09/20 14:37:20;;;;;;;18.63;10.05;;;;;;;;;;6254644;28;20079;-73
2023/09/20 14:40:26;;;;;;;18.33;11.10;;;;;;;;;;6245663;28;20111;-73
2023/09/20 14:43:29;;;;;;;17.45;11.38;;;;;;;;;;6255954;28;20053;-76
2023/09/20 14:46:30;;;;;;;14.05;8.68;;;;;;;;;;6255407;28;20226;-72
2023/09/20 14:49:32;;;;;;;18.25;9.77;;;;;;;;;;6255214;28;20049;-74
2023/09/20 14:52:34;;;;;;;16.70;10.35;;;;;;;;;;6247166;28;20057;-74
2023/09/20 14:55:37;;;;;;;18.00;11.30;;;;;;;;;;6246696;28;20053;-75
2023/09/20 14:58:38;;;;;;;;;;;;;;;;;;6271485;28;20387;-73
2023/09/20 15:01:40;;;;;;;15.07;10.25;;;;;;;;;;6280505;28;19925;-74
2023/09/20 15:04:43;;;;;;;17.38;9.90;;;;;;;;;;6279913;28;20108;-75
2023/09/20 15:07:45;;;;;;;;;;;;;;;;;;6280010;28;20056;-74
2023/09/20 15:10:51;;;;;;;15.60;10.30;;;;;;;;;;6263144;28;20819;-75
2023/09/20 15:13:53;;;;;;;18.02;9.50;;;;;;;;;;6258190;28;20223;-75
2023/09/20 15:16:57;;;;;;;14.18;9.57;;;;;;;;;;6244746;28;20059;-76
2023/09/20 15:19:59;;;;;;;16.02;8.18;;;;;;;;;;6254586;28;20053;-76
2023/09/20 15:23:00;;;;;;;12.15;6.97;;;;;;;;;;6251019;28;20198;-75
2023/09/20 15:26:11;;;;;;;16.52;8.45;;;;;;;;;;6263502;28;20113;-74
2023/09/20 15:29:16;;;;;;;11.77;6.00;;;;;;;;;;6268372;28;20069;-80
2023/09/20 15:32:19;;;;;;;7.93;4.10;;;;;;;;;;6260551;28;20049;-79
2023/09/20 15:35:21;;;;;;;6.00;2.88;;;;;;;;;;6275540;28;20053;-80
2023/09/20 15:38:23;;;;;;;8.82;2.70;;;;;;;;;;6255047;28;20075;-82
2023/09/20 15:41:26;;;;;;;3.55;2.25;;;;;;;;;;6258389;28;20055;-79
2023/09/20 15:44:28;;;;;;;;;;;;;;;;;;6251437;28;20041;-78
2023/09/20 15:47:30;;;;;;;4.68;2.03;;;;;;;;;;6276327;28;19916;-80
2023/09/20 15:50:33;;;;;;;4.75;1.88;;;;;;;;;;6271617;28;20052;-80
2023/09/20 15:53:35;;;;;;;4.80;1.80;;;;;;;;;;6279402;28;20041;-80
2023/09/20 15:56:38;;;;;;;6.30;1.80;;;;;;;;;;6277367;28;20241;-82
2023/09/20 15:59:41;;;;;;;4.05;1.60;;;;;;;;;;6274481;28;20390;-77
2023/09/20 16:02:45;;;;;;;2.97;1.48;;;;;;;;;;6251427;28;20245;-79
2023/09/20 16:05:48;;;;;;;3.38;1.67;;;;;;;;;;6278563;28;20061;-80
2023/09/20 16:08:52;;;;;;;3.88;1.30;;;;;;;;;;6277193;28;20276;-80
2023/09/20 16:11:56;;;;;;;5.38;1.88;;;;;;;;;;6277210;28;20123;-79
2023/09/20 16:14:58;;;;;;;5.03;1.50;;;;;;;;;;6277165;28;20128;-78
2023/09/20 16:18:00;;;;;;;2.28;1.40;;;;;;;;;;6257912;28;20066;-77
2023/09/20 16:21:03;;;;;;;3.78;1.52;;;;;;;;;;6255238;28;20048;-83
2023/09/20 16:24:06;;;;;;;3.35;1.40;;;;;;;;;;6275181;28;20233;-78
2023/09/20 16:27:09;;;;;;;3.33;1.55;;;;;;;;;;6278421;28;20048;-78
2023/09/20 16:30:14;;;;;;;3.42;1.30;;;;;;;;;;6274556;28;20045;-77
2023/09/20 16:33:16;;;;;;;2.60;1.20;;;;;;;;;;6263040;28;20126;-80
2023/09/20 16:36:18;;;;;;;1.77;1.00;;;;;;;;;;6276573;28;20093;-77
2023/09/20 16:39:20;;;;;;;3.17;1.30;;;;;;;;;;6265911;28;20288;-79
2023/09/20 16:42:23;;;;;;;2.65;1.20;;;;;;;;;;6274894;28;20053;-80
2023/09/20 16:45:26;;;;;;;2.45;1.58;;;;;;;;;;6270917;28;20052;-80
2023/09/20 16:48:27;;;;;;;3.67;1.77;;;;;;;;;;6272243;28;20119;-79
2023/09/20 16:51:30;;;;;;;3.28;1.63;;;;;;;;;;6278498;28;20063;-80
2023/09/20 16:54:31;;;;;;;2.90;1.70;;;;;;;;;;6268287;28;20318;-79
2023/09/20 16:57:47;;;;;;;4.07;1.77;;;;;;;;;;6275457;28;20341;-78
2023/09/20 17:00:49;;;;;;;3.80;1.67;;;;;;;;;;6275054;28;20550;-79
2023/09/20 17:03:50;;;;;;;2.80;1.48;;;;;;;;;;6255267;28;20100;-78
2023/09/20 17:06:52;;;;;;;4.88;2.00;;;;;;;;;;6252799;28;20265;-79
2023/09/20 17:09:54;;;;;;;3.75;1.98;;;;;;;;;;6250832;28;20315;-79
2023/09/20 17:12:59;;;;;;;3.30;1.80;;;;;;;;;;6246712;28;20081;-78
2023/09/20 17:16:00;;;;;;;4.45;1.90;;;;;;;;;;6253168;28;20416;-77
2023/09/20 17:19:02;;;;;;;6.00;1.83;;;;;;;;;;6249444;28;20049;-79
2023/09/20 17:22:06;;;;;;;3.97;1.83;;;;;;;;;;6251732;28;20515;-79
2023/09/20 17:25:08;;;;;;;4.13;1.80;;;;;;;;;;6252011;28;20108;-79
2023/09/20 17:28:12;;;;;;;4.57;2.08;;;;;;;;;;6250500;28;20053;-77
2023/09/20 17:31:14;;;;;;;3.15;1.88;;;;;;;;;;6240260;28;20115;-78
2023/09/20 17:34:17;;;;;;;2.90;2.20;;;;;;;;;;6253788;28;20058;-75
2023/09/20 17:37:22;;;;;;;7.15;2.75;;;;;;;;;;6254055;28;20050;-77
2023/09/20 17:40:30;;;;;;;5.75;2.70;;;;;;;;;;6249777;28;20055;-76
2023/09/20 17:44:07;;;;;;;4.93;2.67;;;;;;;;;;6256943;28;20061;-76
2023/09/20 17:47:12;;;;;;;5.47;3.22;;;;;;;;;;6265486;28;20049;-78
2023/09/20 17:50:14;;;;;;;4.38;2.50;;;;;;;;;;6274989;28;20059;-78
2023/09/20 17:53:15;;;;;;;5.75;2.28;;;;;;;;;;6275540;28;20111;-82
2023/09/20 17:56:18;;;;;;;9.15;2.78;;;;;;;;;;6278224;28;20045;-80
2023/09/20 17:59:23;;;;;;;6.43;2.70;;;;;;;;;;6275379;28;20112;-80
2023/09/20 18:02:28;;;;;;;5.43;2.60;;;;;;;;;;6275937;28;20076;-78
2023/09/20 18:05:32;;;;;;;5.97;2.85;;;;;;;;;;6266267;28;20052;-77
2023/09/20 18:08:34;;;;;;;7.93;2.72;;;;;;;;;;6247248;28;20049;-75
2023/09/20 18:14:59;;;;;;;6.47;3.22;;;;;;;;;;6267817;28;20052;-80
2023/09/20 18:18:04;;;;;;;5.78;3.20;;;;;;;;;;6275148;28;20454;-82
2023/09/20 18:21:07;;;;;;;4.75;2.92;;;;;;;;;;6275221;28;20052;-80
2023/09/20 18:24:08;;;;;;;9.40;3.28;;;;;;;;;;6279905;28;20060;-80
2023/09/20 18:27:11;;;;;;;7.18;3.50;;;;;;;;;;6271395;28;20056;-88
2023/09/20 18:30:14;;;;;;;6.90;3.70;;;;;;;;;;6280576;28;20060;-83
2023/09/20 18:33:17;;;;;;;;;;;;;;;;;;6280208;28;20068;-80
2023/09/20 18:36:20;;;;;;;7.10;3.97;;;;;;;;;;6282313;28;19929;-77
2023/09/20 18:39:22;;;;;;;5.67;3.97;;;;;;;;;;6281170;28;20329;-84
2023/09/20 18:42:25;;;;;;;7.30;3.97;;;;;;;;;;6278438;28;20041;-80
2023/09/20 18:45:26;;;;;;;8.63;4.70;;;;;;;;;;6281670;28;20056;-79
2023/09/20 18:48:30;;;;;;;6.88;4.45;;;;;;;;;;6275245;28;20385;-82
2023/09/20 18:51:42;;;;;;;7.82;3.60;;;;;;;;;;6279559;28;20248;-80
2023/09/20 18:54:44;;;;;;;6.93;3.83;;;;;;;;;;6277444;28;20120;-85